createdAt,value
2018-07-08T00:00:36.863Z,55999.73
2018-07-08T00:03:06.515Z,55946.27
2018-07-08T00:05:35.868Z,55942.16
2018-07-08T00:08:05.494Z,55969.92
2018-07-08T00:10:38.209Z,55953.46
2018-07-08T00:13:09.316Z,55995.62
2018-07-08T00:15:38.803Z,55981.23
2018-07-08T00:18:08.237Z,55966.83
2018-07-08T00:20:37.730Z,55967.86
2018-07-08T00:23:07.472Z,55962.72
2018-07-08T00:25:36.923Z,55979.17
2018-07-08T00:28:06.375Z,55962.72
2018-07-08T00:30:35.830Z,55937.01
2018-07-08T00:33:05.246Z,55979.17
2018-07-08T00:35:34.676Z,55958.61
2018-07-08T00:38:04.148Z,55969.92
2018-07-08T00:40:33.984Z,56018.24
2018-07-08T00:43:03.627Z,55985.34
2018-07-08T00:45:33.216Z,56005.90
2018-07-08T00:48:02.667Z,55963.75
2018-07-08T00:50:32.044Z,55956.55
2018-07-08T00:53:01.455Z,55965.80
2018-07-08T00:55:30.856Z,55964.78
2018-07-08T00:58:00.332Z,55975.06
2018-07-08T01:00:33.892Z,55946.27
2018-07-08T01:03:04.476Z,55968.89
2018-07-08T01:05:33.911Z,55959.63
2018-07-08T01:08:03.896Z,55966.83
2018-07-08T01:10:33.363Z,56007.96
2018-07-08T01:13:03.432Z,55986.37
2018-07-08T01:15:32.964Z,55958.61
2018-07-08T01:18:02.520Z,55930.84
2018-07-08T01:20:32.055Z,55979.17
2018-07-08T01:23:01.497Z,55989.45
2018-07-08T01:25:48.175Z,55989.45
2018-07-08T01:28:17.650Z,55993.57
2018-07-08T01:30:47.091Z,55973.00
2018-07-08T01:33:16.513Z,55982.25
2018-07-08T01:35:45.952Z,55987.40
2018-07-08T01:38:15.407Z,55966.83
2018-07-08T01:40:44.836Z,55940.10
2018-07-08T01:43:14.268Z,55959.63
2018-07-08T01:45:43.724Z,55968.89
2018-07-08T01:48:13.130Z,55984.31
2018-07-08T01:50:42.488Z,55981.23
2018-07-08T01:53:12.109Z,55962.72
2018-07-08T01:55:41.546Z,55980.20
2018-07-08T01:58:10.946Z,55979.17
2018-07-08T02:00:40.404Z,55977.11
2018-07-08T02:03:10.041Z,55950.38
2018-07-08T02:05:39.775Z,55991.51
2018-07-08T02:08:08.942Z,55970.95
2018-07-08T02:10:38.548Z,55989.45
2018-07-08T02:13:07.976Z,55952.44
2018-07-08T02:15:37.652Z,55956.55
2018-07-08T02:18:07.143Z,55928.79
2018-07-08T02:20:36.593Z,55989.45
2018-07-08T02:23:06.192Z,55958.61
2018-07-08T02:25:35.705Z,56017.21
2018-07-08T02:28:05.320Z,55993.57
2018-07-08T02:30:34.858Z,56005.90
2018-07-08T02:33:04.261Z,55984.31
2018-07-08T02:35:33.667Z,55996.65
2018-07-08T02:38:03.066Z,55986.37
2018-07-08T02:40:32.636Z,55962.72
2018-07-08T02:43:02.061Z,55976.09
2018-07-08T02:45:31.459Z,56001.79
2018-07-08T02:48:01.034Z,55987.40
2018-07-08T02:50:30.506Z,56006.93
2018-07-08T02:52:59.913Z,56010.02
2018-07-08T02:55:29.388Z,55990.48
2018-07-08T02:57:58.833Z,55987.40
2018-07-08T03:00:28.238Z,56008.99
2018-07-08T03:02:57.682Z,55997.68
2018-07-08T03:05:27.109Z,56007.96
2018-07-08T03:07:56.536Z,55980.20
2018-07-08T03:10:25.981Z,55961.69
2018-07-08T03:12:55.420Z,55954.49
2018-07-08T03:15:24.845Z,56026.47
2018-07-08T03:17:54.304Z,55979.17
2018-07-08T03:20:23.723Z,55980.20
2018-07-08T03:22:53.218Z,56004.87
2018-07-08T03:25:22.740Z,55978.14
2018-07-08T03:27:52.219Z,55999.73
2018-07-08T03:30:21.613Z,55984.31
2018-07-08T03:32:51.005Z,56020.30
2018-07-08T03:35:20.437Z,55989.45
2018-07-08T03:37:49.857Z,56000.76
2018-07-08T03:40:19.307Z,55948.32
2018-07-08T03:42:48.754Z,55985.34
2018-07-08T03:45:18.168Z,55975.06
2018-07-08T03:47:47.611Z,55954.49
2018-07-08T03:50:17.060Z,55960.66
2018-07-08T03:52:46.469Z,55989.45
2018-07-08T03:55:15.990Z,55947.30
2018-07-08T03:57:45.461Z,55982.25
2018-07-08T04:00:15.009Z,55968.89
2018-07-08T04:02:44.402Z,55977.11
2018-07-08T04:05:13.788Z,55944.21
2018-07-08T04:07:43.195Z,55983.28
2018-07-08T04:10:12.750Z,55980.20
2018-07-08T04:12:42.179Z,55984.31
2018-07-08T04:15:11.702Z,55987.40
2018-07-08T04:17:41.122Z,55975.06
2018-07-08T04:20:10.491Z,55953.46
2018-07-08T04:22:39.915Z,55985.34
2018-07-08T04:25:09.312Z,55984.31
2018-07-08T04:27:38.712Z,55965.80
2018-07-08T04:30:08.164Z,55953.46
2018-07-08T04:32:37.520Z,55969.92
2018-07-08T04:35:07.305Z,55958.61
2018-07-08T04:37:36.696Z,55968.89
2018-07-08T04:40:06.250Z,56007.96
2018-07-08T04:42:35.657Z,55966.83
2018-07-08T04:45:05.043Z,55984.31
2018-07-08T04:47:34.475Z,55986.37
2018-07-08T04:50:03.936Z,55996.65
2018-07-08T04:52:33.380Z,55951.41
2018-07-08T04:55:02.797Z,55954.49
2018-07-08T04:57:32.234Z,55960.66
2018-07-08T05:00:01.888Z,55947.30
2018-07-08T05:02:31.405Z,55968.89
2018-07-08T05:05:00.889Z,55938.04
2018-07-08T05:07:30.327Z,55965.80
2018-07-08T05:09:59.801Z,55935.98
2018-07-08T05:12:29.240Z,55984.31
2018-07-08T05:14:58.754Z,55978.14
2018-07-08T05:17:28.146Z,55987.40
2018-07-08T05:19:57.626Z,55982.25
2018-07-08T05:22:27.073Z,55990.48
2018-07-08T05:24:56.505Z,55974.03
2018-07-08T05:27:25.962Z,55991.51
2018-07-08T05:29:55.552Z,55993.57
2018-07-08T05:32:25.100Z,55979.17
2018-07-08T05:34:54.525Z,55948.32
2018-07-08T05:37:23.984Z,55975.06
2018-07-08T05:39:53.411Z,55935.98
2018-07-08T05:42:22.896Z,55985.34
2018-07-08T05:44:52.331Z,55954.49
2018-07-08T05:47:21.780Z,55977.11
2018-07-08T05:49:51.176Z,55964.78
2018-07-08T05:52:20.606Z,55948.32
2018-07-08T05:54:50.128Z,55981.23
2018-07-08T05:57:19.543Z,55950.38
2018-07-08T05:59:48.946Z,55968.89
2018-07-08T06:02:18.376Z,55955.52
2018-07-08T06:04:47.777Z,55978.14
2018-07-08T06:07:17.142Z,55960.66
2018-07-08T06:09:46.579Z,55968.89
2018-07-08T06:12:15.993Z,55956.55
2018-07-08T06:14:45.450Z,55988.43
2018-07-08T06:17:14.846Z,55981.23
2018-07-08T06:19:44.322Z,55962.72
2018-07-08T06:22:13.735Z,55957.58
2018-07-08T06:24:43.210Z,55975.06
2018-07-08T06:27:12.637Z,55980.20
2018-07-08T06:29:42.101Z,55945.24
2018-07-08T06:32:11.596Z,55942.16
2018-07-08T06:34:41.005Z,55964.78
2018-07-08T06:37:10.433Z,55960.66
2018-07-08T06:39:39.831Z,55959.63
2018-07-08T06:42:09.309Z,55931.87
2018-07-08T06:44:38.816Z,55963.75
2018-07-08T06:47:08.243Z,55945.24
2018-07-08T06:49:37.660Z,55930.84
2018-07-08T06:52:07.154Z,55876.35
2018-07-08T06:54:36.520Z,55894.86
2018-07-08T06:57:06.500Z,55950.38
2018-07-08T06:59:35.931Z,55969.92
2018-07-08T07:02:05.353Z,55953.46
2018-07-08T07:04:34.799Z,55928.79
2018-07-08T07:07:04.215Z,55969.92
2018-07-08T07:09:33.625Z,55935.98
2018-07-08T07:12:03.018Z,55951.41
2018-07-08T07:14:32.396Z,55903.08
2018-07-08T07:17:01.844Z,55957.58
2018-07-08T07:19:31.309Z,55952.44
2018-07-08T07:22:00.690Z,55962.72
2018-07-08T07:24:30.099Z,55981.23
2018-07-08T07:26:59.807Z,55938.04
2018-07-08T07:29:29.256Z,55961.69
2018-07-08T07:31:58.660Z,55958.61
2018-07-08T07:34:28.093Z,55940.10
2018-07-08T07:36:57.569Z,55964.78
2018-07-08T07:39:27.051Z,55945.24
2018-07-08T07:41:56.572Z,55941.13
2018-07-08T07:44:25.982Z,55927.76
2018-07-08T07:46:55.471Z,55943.18
2018-07-08T07:49:24.942Z,55923.65
2018-07-08T07:51:54.324Z,55980.20
2018-07-08T07:54:23.792Z,55942.16
2018-07-08T07:56:53.622Z,55937.01
2018-07-08T07:59:23.069Z,55965.80
2018-07-08T08:01:52.650Z,55938.04
2018-07-08T08:04:22.149Z,55933.93
2018-07-08T08:06:51.557Z,55917.48
2018-07-08T08:09:21.037Z,55919.54
2018-07-08T08:11:50.451Z,55926.73
2018-07-08T08:14:19.865Z,55907.20
2018-07-08T08:16:49.489Z,55956.55
2018-07-08T08:19:19.069Z,55904.11
2018-07-08T08:21:48.547Z,55883.55
2018-07-08T08:24:18.012Z,55921.59
2018-07-08T08:26:47.452Z,55908.23
2018-07-08T08:29:16.862Z,55872.24
2018-07-08T08:31:46.258Z,55881.49
2018-07-08T08:34:58.248Z,55908.23
2018-07-08T08:37:30.107Z,55871.21
2018-07-08T08:39:59.465Z,55896.91
2018-07-08T08:42:28.909Z,55922.62
2018-07-08T08:44:59.090Z,55896.91
2018-07-08T08:47:29.331Z,55911.31
2018-07-08T08:49:58.832Z,55889.72
2018-07-08T08:52:28.396Z,55888.69
2018-07-08T08:54:58.135Z,55889.72
2018-07-08T08:57:27.579Z,55912.34
2018-07-08T08:59:57.225Z,55880.46
2018-07-08T09:02:26.700Z,55853.73
2018-07-08T09:04:56.061Z,55809.52
2018-07-08T09:07:25.544Z,55839.34
2018-07-08T09:09:55.077Z,55822.88
2018-07-08T09:12:24.461Z,55859.90
2018-07-08T09:14:53.901Z,55808.49
2018-07-08T09:17:23.312Z,55783.81
2018-07-08T09:19:52.664Z,55767.36
2018-07-08T09:22:22.147Z,55744.74
2018-07-08T09:24:51.542Z,55754.00
2018-07-08T09:27:20.947Z,55756.05
2018-07-08T09:29:50.389Z,55750.91
2018-07-08T09:32:19.851Z,55816.71
2018-07-08T09:34:49.343Z,55794.10
2018-07-08T09:37:18.742Z,55812.60
2018-07-08T09:39:48.193Z,55800.27
2018-07-08T09:42:17.646Z,55776.62
2018-07-08T09:44:47.135Z,55786.90
2018-07-08T09:47:16.538Z,55763.25
2018-07-08T09:49:46.181Z,55810.55
2018-07-08T09:52:15.570Z,55798.21
2018-07-08T09:54:45.021Z,55786.90
2018-07-08T09:57:14.487Z,55779.70
2018-07-08T09:59:43.907Z,55807.46
2018-07-08T10:02:13.353Z,55808.49
2018-07-08T10:04:42.798Z,55797.18
2018-07-08T10:07:12.218Z,55810.55
2018-07-08T10:09:41.654Z,55775.59
2018-07-08T10:12:11.277Z,55764.28
2018-07-08T10:14:40.769Z,55782.79
2018-07-08T10:17:10.212Z,55803.35
2018-07-08T10:19:39.699Z,55804.38
2018-07-08T10:22:09.144Z,55838.31
2018-07-08T10:24:38.686Z,55818.77
2018-07-08T10:34:30.210Z,55880.46
2018-07-08T10:36:59.619Z,55875.32
2018-07-08T10:39:28.819Z,55872.24
2018-07-08T10:41:58.283Z,55879.43
2018-07-08T10:44:27.847Z,55851.68
2018-07-08T10:46:57.273Z,55836.25
2018-07-08T10:49:26.689Z,55874.29
2018-07-08T10:51:56.223Z,55859.90
2018-07-08T10:54:25.744Z,55882.52
2018-07-08T10:56:55.114Z,55912.34
2018-07-08T10:59:24.561Z,55875.32
2018-07-08T11:01:53.990Z,55880.46
2018-07-08T11:04:23.524Z,55875.32
2018-07-08T11:06:53.009Z,55888.69
2018-07-08T11:09:22.447Z,55903.08
2018-07-08T11:11:51.823Z,55858.87
2018-07-08T11:14:21.241Z,55892.80
2018-07-08T11:16:50.694Z,55894.86
2018-07-08T11:19:20.269Z,55854.76
2018-07-08T11:21:49.761Z,55887.66
2018-07-08T11:24:19.140Z,55867.10
2018-07-08T11:26:48.526Z,55855.79
2018-07-08T11:29:17.993Z,55876.35
2018-07-08T11:31:47.130Z,55847.56
2018-07-08T11:34:16.531Z,55873.27
2018-07-08T11:36:45.975Z,55905.14
2018-07-08T11:39:15.545Z,55895.89
2018-07-08T11:41:44.937Z,55894.86
2018-07-08T11:44:14.406Z,55875.32
2018-07-08T11:46:43.827Z,55886.63
2018-07-08T11:49:13.027Z,55889.72
2018-07-08T11:51:42.355Z,55886.63
2018-07-08T11:54:11.773Z,55860.93
2018-07-08T11:56:41.270Z,55861.95
2018-07-08T11:59:10.794Z,55876.35
2018-07-08T12:01:40.239Z,55864.01
2018-07-08T12:04:09.740Z,55836.25
2018-07-08T12:06:39.193Z,55877.38
2018-07-08T12:09:08.749Z,55859.90
2018-07-08T12:11:38.135Z,55866.07
2018-07-08T12:14:07.679Z,55867.10
2018-07-08T12:16:37.109Z,55857.84
2018-07-08T12:19:06.678Z,55833.17
2018-07-08T12:21:36.199Z,55850.64
2018-07-08T12:24:05.790Z,55864.01
2018-07-08T12:26:35.235Z,55848.59
2018-07-08T12:29:04.702Z,55834.20
2018-07-08T12:31:34.139Z,55867.10
2018-07-08T12:34:03.572Z,55861.95
2018-07-08T12:36:33.083Z,55846.53
2018-07-08T12:39:02.557Z,55861.95
2018-07-08T12:41:32.067Z,55844.48
2018-07-08T12:44:01.570Z,55857.84
2018-07-08T12:46:31.051Z,55903.08
2018-07-08T12:49:00.584Z,55880.46
2018-07-08T12:51:29.950Z,55856.81
2018-07-08T12:53:59.429Z,55855.79
2018-07-08T12:56:28.795Z,55848.59
2018-07-08T12:58:58.281Z,55836.25
2018-07-08T13:01:27.720Z,55804.38
2018-07-08T13:03:57.169Z,55807.46
2018-07-08T13:06:26.759Z,55818.77
2018-07-08T13:08:56.158Z,55803.35
2018-07-08T13:11:25.629Z,55792.04
2018-07-08T13:13:55.117Z,55811.57
2018-07-08T13:16:24.438Z,55850.64
2018-07-08T13:18:53.857Z,55824.94
2018-07-08T13:21:23.335Z,55819.80
2018-07-08T13:23:52.744Z,55769.42
2018-07-08T13:26:22.236Z,55800.27
2018-07-08T13:28:51.585Z,55837.28
2018-07-08T13:31:21.071Z,55818.77
2018-07-08T13:33:50.526Z,55828.02
2018-07-08T13:36:19.914Z,55852.70
2018-07-08T13:38:49.412Z,55803.35
2018-07-08T13:41:18.863Z,55836.25
2018-07-08T13:43:48.541Z,55856.81
2018-07-08T13:46:17.980Z,55855.79
2018-07-08T13:48:47.399Z,55820.83
2018-07-08T13:51:16.814Z,55870.18
2018-07-08T13:53:46.259Z,55856.81
2018-07-08T13:56:15.645Z,55856.81
2018-07-08T13:58:45.071Z,55847.56
2018-07-08T14:01:14.490Z,55778.67
2018-07-08T14:03:43.928Z,55831.11
2018-07-08T14:06:13.503Z,55841.39
2018-07-08T14:08:42.882Z,55878.41
2018-07-08T14:11:12.362Z,55856.81
2018-07-08T14:13:41.816Z,55868.12
2018-07-08T14:16:11.219Z,55869.15
2018-07-08T14:18:40.605Z,55878.41
2018-07-08T14:21:10.047Z,55879.43
2018-07-08T14:23:39.496Z,55866.07
2018-07-08T14:26:08.945Z,55867.10
2018-07-08T14:28:38.306Z,55881.49
2018-07-08T14:31:07.763Z,55865.04
2018-07-08T14:33:37.145Z,55845.50
2018-07-08T14:36:06.643Z,55855.79
2018-07-08T14:38:36.081Z,55903.08
2018-07-08T14:41:05.523Z,55872.24
2018-07-08T14:43:34.979Z,55864.01
2018-07-08T14:46:04.529Z,55854.76
2018-07-08T14:48:33.901Z,55875.32
2018-07-08T14:51:03.358Z,55886.63
2018-07-08T14:53:32.759Z,55856.81
2018-07-08T14:56:02.214Z,55874.29
2018-07-08T14:58:31.688Z,55865.04
2018-07-08T15:01:01.245Z,55830.08
2018-07-08T15:03:30.676Z,55832.14
2018-07-08T15:06:00.095Z,55851.68
2018-07-08T15:08:29.629Z,55800.27
2018-07-08T15:10:59.190Z,55860.93
2018-07-08T15:13:28.795Z,55827.00
2018-07-08T15:15:58.238Z,55840.36
2018-07-08T15:18:27.787Z,55872.24
2018-07-08T15:20:57.308Z,55880.46
2018-07-08T15:23:26.732Z,55878.41
2018-07-08T15:25:56.196Z,55828.02
2018-07-08T15:28:25.813Z,55848.59
2018-07-08T15:30:55.276Z,55848.59
2018-07-08T15:33:24.642Z,55839.34
2018-07-08T15:35:56.550Z,55822.88
2018-07-08T15:38:26.031Z,55824.94
2018-07-08T15:40:55.452Z,55850.64
2018-07-08T15:43:24.971Z,55868.12
2018-07-08T15:45:54.408Z,55832.14
2018-07-08T15:48:24.124Z,55841.39
2018-07-08T15:50:53.624Z,55853.73
2018-07-08T15:53:23.180Z,55849.62
2018-07-08T15:55:52.580Z,55818.77
2018-07-08T15:58:21.999Z,55843.45
2018-07-08T16:00:51.401Z,55825.97
2018-07-08T16:03:20.822Z,55850.64
2018-07-08T16:05:50.249Z,55847.56
2018-07-08T16:08:19.737Z,55831.11
2018-07-08T16:10:49.131Z,55855.79
2018-07-08T16:13:18.553Z,55853.73
2018-07-08T16:15:48.079Z,55821.86
2018-07-08T16:18:17.599Z,55851.68
2018-07-08T16:20:46.989Z,55834.20
2018-07-08T16:23:16.403Z,55857.84
2018-07-08T16:25:45.985Z,55831.11
2018-07-08T16:28:15.388Z,55839.34
2018-07-08T16:30:44.866Z,55842.42
2018-07-08T16:33:14.338Z,55855.79
2018-07-08T16:35:52.189Z,55849.62
2018-07-08T16:38:21.636Z,55868.12
2018-07-08T16:40:52.526Z,55850.64
2018-07-08T16:43:21.951Z,55864.01
2018-07-08T16:45:51.412Z,55867.10
2018-07-08T16:48:21.001Z,55855.79
2018-07-08T16:50:50.451Z,55866.07
2018-07-08T16:53:19.966Z,55878.41
2018-07-08T16:55:49.435Z,55843.45
2018-07-08T16:58:18.944Z,55861.95
2018-07-08T17:00:48.382Z,55880.46
2018-07-08T17:03:17.821Z,55892.80
2018-07-08T17:05:47.244Z,55833.17
2018-07-08T17:08:16.743Z,55869.15
2018-07-08T17:10:46.121Z,55870.18
2018-07-08T17:13:15.621Z,55874.29
2018-07-08T17:15:45.017Z,55895.89
2018-07-08T17:18:14.468Z,55881.49
2018-07-08T17:20:43.856Z,55898.97
2018-07-08T17:23:13.387Z,55888.69
2018-07-08T17:25:42.787Z,55876.35
2018-07-08T17:28:12.228Z,55873.27
2018-07-08T17:30:42.072Z,55853.73
2018-07-08T17:33:11.664Z,55868.12
2018-07-08T17:35:41.156Z,55851.68
2018-07-08T17:38:10.632Z,55879.43
2018-07-08T17:40:40.144Z,55875.32
2018-07-08T17:43:09.599Z,55875.32
2018-07-08T17:45:39.051Z,55897.94
2018-07-08T17:48:08.569Z,55878.41
2018-07-08T17:50:37.968Z,55868.12
2018-07-08T17:53:07.391Z,55882.52
2018-07-08T17:55:36.837Z,55878.41
2018-07-08T17:58:06.540Z,55905.14
2018-07-08T18:00:36.181Z,55909.25
2018-07-08T18:03:05.585Z,55905.14
2018-07-08T18:05:35.042Z,55882.52
2018-07-08T18:08:04.492Z,55896.91
2018-07-08T18:10:34.237Z,55892.80
2018-07-08T18:13:03.785Z,55888.69
2018-07-08T18:15:33.202Z,55912.34
2018-07-08T18:18:02.649Z,55926.73
2018-07-08T18:20:32.873Z,55886.63
2018-07-08T18:23:02.354Z,55886.63
2018-07-08T18:25:31.735Z,55890.75
2018-07-08T18:28:01.106Z,55898.97
2018-07-08T18:30:31.825Z,55917.48
2018-07-08T18:33:01.297Z,55938.04
2018-07-08T18:35:30.827Z,55912.34
2018-07-08T18:38:00.271Z,55914.39
2018-07-08T18:40:29.693Z,55905.14
2018-07-08T18:42:59.148Z,55926.73
2018-07-08T18:45:28.523Z,55918.50
2018-07-08T18:47:57.919Z,55895.89
2018-07-08T18:50:27.383Z,55914.39
2018-07-08T18:52:56.801Z,55905.14
2018-07-08T18:55:26.216Z,55925.70
2018-07-08T18:57:55.643Z,55907.20
2018-07-08T19:00:25.123Z,55923.65
2018-07-08T19:02:54.543Z,55921.59
2018-07-08T19:05:23.967Z,55925.70
2018-07-08T19:07:53.388Z,55915.42
2018-07-08T19:10:22.869Z,55921.59
2018-07-08T19:12:52.260Z,55930.84
2018-07-08T19:15:21.741Z,55958.61
2018-07-08T19:17:51.123Z,55931.87
2018-07-08T19:20:20.571Z,55925.70
2018-07-08T19:22:50.052Z,55907.20
2018-07-08T19:25:19.501Z,55918.50
2018-07-08T19:27:48.880Z,55921.59
2018-07-08T19:30:18.324Z,55951.41
2018-07-08T19:32:47.791Z,55922.62
2018-07-08T19:35:17.437Z,55919.54
2018-07-08T19:37:46.951Z,55941.13
2018-07-08T19:40:16.660Z,55925.70
2018-07-08T19:42:46.005Z,55943.18
2018-07-08T19:45:15.479Z,55932.90
2018-07-08T19:47:44.933Z,55937.01
2018-07-08T19:50:14.324Z,55937.01
2018-07-08T19:52:43.782Z,55951.41
2018-07-08T19:55:13.256Z,55945.24
2018-07-08T19:57:42.668Z,55945.24
2018-07-08T20:00:12.127Z,55927.76
2018-07-08T20:02:41.493Z,55942.16
2018-07-08T20:05:10.917Z,55919.54
2018-07-08T20:07:40.477Z,55924.68
2018-07-08T20:10:09.828Z,55930.84
2018-07-08T20:12:39.192Z,55919.54
2018-07-08T20:15:08.610Z,55959.63
2018-07-08T20:17:38.152Z,55912.34
2018-07-08T20:20:09.561Z,55929.82
2018-07-08T20:22:39.034Z,55937.01
2018-07-08T20:25:09.078Z,55940.10
2018-07-08T20:27:38.936Z,55948.32
2018-07-08T20:30:08.324Z,55939.07
2018-07-08T20:32:38.109Z,55964.78
2018-07-08T20:35:07.751Z,55944.21
2018-07-08T20:37:37.008Z,55928.79
2018-07-08T20:40:06.407Z,55935.98
2018-07-08T20:42:36.208Z,55939.07
2018-07-08T20:45:05.660Z,55964.78
2018-07-08T20:47:35.187Z,55932.90
2018-07-08T20:50:04.852Z,55926.73
2018-07-08T20:52:34.518Z,55947.30
2018-07-08T20:55:03.871Z,55931.87
2018-07-08T20:57:33.374Z,55962.72
2018-07-08T21:00:02.769Z,55934.96
2018-07-08T21:02:32.264Z,55940.10
2018-07-08T21:05:01.797Z,55944.21
2018-07-08T21:07:31.186Z,55955.52
2018-07-08T21:10:00.645Z,55935.98
2018-07-08T21:12:30.839Z,55952.44
2018-07-08T21:15:00.179Z,55975.06
2018-07-08T21:17:29.540Z,55964.78
2018-07-08T21:19:59.056Z,55980.20
2018-07-08T21:22:28.847Z,55983.28
2018-07-08T21:24:58.196Z,55954.49
2018-07-08T21:27:27.631Z,55964.78
2018-07-08T21:29:57.106Z,55930.84
2018-07-08T21:32:26.587Z,55941.13
2018-07-08T21:34:56.022Z,55965.80
2018-07-08T21:37:26.081Z,55966.83
2018-07-08T21:39:55.617Z,55969.92
2018-07-08T21:42:25.116Z,55959.63
2018-07-08T21:44:55.308Z,55961.69
2018-07-08T21:47:24.935Z,55953.46
2018-07-08T21:49:54.311Z,55943.18
2018-07-08T21:52:23.707Z,55950.38
2018-07-08T21:54:53.082Z,55956.55
2018-07-08T21:57:22.599Z,55934.96
2018-07-08T21:59:52.063Z,55966.83
2018-07-08T22:02:22.558Z,55979.17
2018-07-08T22:04:52.075Z,55970.95
2018-07-08T22:07:23.049Z,55945.24
2018-07-08T22:09:53.732Z,55958.61
2018-07-08T22:12:23.139Z,55930.84
2018-07-08T22:14:52.512Z,55960.66
2018-07-08T22:17:21.934Z,55947.30
2018-07-08T22:19:51.286Z,55960.66
2018-07-08T22:22:20.680Z,55950.38
2018-07-08T22:24:50.145Z,55981.23
2018-07-08T22:27:19.730Z,55954.49
2018-07-08T22:29:49.167Z,55983.28
2018-07-08T22:32:18.537Z,55974.03
2018-07-08T22:34:47.953Z,55986.37
2018-07-08T22:37:17.353Z,55959.63
2018-07-08T22:39:46.800Z,55979.17
2018-07-08T22:42:16.476Z,55975.06
2018-07-08T22:44:45.917Z,55950.38
2018-07-08T22:47:15.348Z,55962.72
2018-07-08T22:49:45.185Z,55966.83
2018-07-08T22:52:14.624Z,55973.00
2018-07-08T22:54:44.037Z,55967.86
2018-07-08T22:57:13.430Z,55965.80
2018-07-08T23:00:00.106Z,55955.52
2018-07-08T23:02:41.887Z,55958.61
2018-07-08T23:05:11.263Z,55955.52
2018-07-08T23:07:41.337Z,55970.95
2018-07-08T23:10:11.839Z,55993.57
2018-07-08T23:12:41.275Z,55995.62
2018-07-08T23:15:10.678Z,55975.06
2018-07-08T23:17:44.259Z,55985.34
2018-07-08T23:20:14.505Z,55983.28
2018-07-08T23:22:58.041Z,55977.11
2018-07-08T23:25:27.739Z,55967.86
2018-07-08T23:27:57.694Z,55983.28
2018-07-08T23:30:27.081Z,55992.54
2018-07-08T23:32:56.463Z,55968.89
2018-07-08T23:35:25.879Z,56005.90
2018-07-08T23:37:55.380Z,55979.17
2018-07-08T23:40:24.805Z,55960.66
2018-07-08T23:42:54.349Z,55973.00
2018-07-08T23:45:23.738Z,55989.45
2018-07-08T23:47:53.162Z,55995.62
2018-07-08T23:50:22.592Z,55999.73
2018-07-08T23:52:52.023Z,55977.11
2018-07-08T23:55:21.400Z,55997.68
2018-07-08T23:57:50.822Z,55992.54
